KAIG

Langlade County Airport

Antigo, Wisconsin, USA
METAR KAIG 140035Z AUTO 24005KT 3SM BR OVC005 M01/M01 A3006 RMK AO2 T10101012
Observed Flight Rules
Dec-14 @ 00:35 UTC (9 minutes ago) Instrument Flight Rules
Wind Visibility Clouds Conditions
240° at 5 knots 3 miles
  • Overcast at 500' AGL
  • Mist
Temperatures Readings
Current -1°C / 30°F
Dewpoint -1°C / 30°F
Humidity 100%
Altimeter 30.06" Hg
Pressure 1018 hPa
Elevation 464
METAR KAIG 140035Z AUTO 24005KT 3SM BR OVC005 M01/M01 A3006 RMK AO2 T10101012
Observed Flight Rules
Dec-14 @ 00:35 UTC
(9 minutes ago)
IFR
Wind Visibility
240° at 5 knots 3 miles
Clouds
  • Overcast at 500' AGL
Conditions
  • Mist
Temperature Dewpoint
-1°C / 30°F -1°C / 30°F
Humidity Altimeter Pressure
100% 30.06" Hg 1018 hPa